createdAt,value
2023-02-17T00:27:38.339Z,233.81
2023-02-17T00:28:38.333Z,232.63
2023-02-17T00:29:38.346Z,231.86
2023-02-17T00:30:38.303Z,233.19
2023-02-17T00:31:38.430Z,233.32
2023-02-17T00:32:38.283Z,233.44
2023-02-17T00:33:38.252Z,233.84
2023-02-17T00:34:38.241Z,233.11
2023-02-17T00:35:38.217Z,232.22
2023-02-17T00:36:38.207Z,229.92
2023-02-17T00:37:38.179Z,230.18
2023-02-17T00:38:38.168Z,230.79
2023-02-17T00:39:38.141Z,231.75
2023-02-17T00:40:38.114Z,232.39
2023-02-17T00:41:38.101Z,232.29
2023-02-17T00:42:38.117Z,233.77
2023-02-17T00:43:38.081Z,231.89
2023-02-17T00:44:38.069Z,233.08
2023-02-17T00:45:38.018Z,233.74
2023-02-17T00:46:38.088Z,230.95
2023-02-17T00:47:38.018Z,230.39
2023-02-17T00:48:37.997Z,231.97
2023-02-17T00:49:37.958Z,232.13
2023-02-17T00:50:37.916Z,233.15
2023-02-17T00:51:37.922Z,232.10
2023-02-17T00:52:37.927Z,231.71
2023-02-17T00:53:37.892Z,232.47
2023-02-17T00:54:37.846Z,230.62
2023-02-17T00:55:37.833Z,231.60
2023-02-17T00:56:37.822Z,231.71
2023-02-17T00:57:37.811Z,230.08
2023-02-17T00:58:37.771Z,234.62
2023-02-17T00:59:37.733Z,233.83
2023-02-17T01:00:37.737Z,233.78
2023-02-17T01:01:37.751Z,233.25
2023-02-17T01:02:37.708Z,233.67
2023-02-17T01:03:37.667Z,230.36
2023-02-17T01:04:37.646Z,232.80
2023-02-17T01:05:37.609Z,233.35
2023-02-17T01:06:37.590Z,233.52
2023-02-17T01:07:37.596Z,233.99
2023-02-17T01:08:37.571Z,230.15
2023-02-17T01:09:37.543Z,231.81
2023-02-17T01:10:37.550Z,232.98
2023-02-17T01:11:37.519Z,232.61
2023-02-17T01:12:37.535Z,234.00
2023-02-17T01:13:37.476Z,230.94
2023-02-17T01:14:37.477Z,232.20
2023-02-17T01:15:37.455Z,233.51
2023-02-17T01:16:37.415Z,232.72
2023-02-17T01:17:37.424Z,231.51
2023-02-17T01:18:37.369Z,231.92
2023-02-17T01:19:37.362Z,231.69
2023-02-17T01:20:37.352Z,231.31
2023-02-17T01:21:37.344Z,231.88
2023-02-17T01:22:37.293Z,230.44
2023-02-17T01:23:37.275Z,233.65
2023-02-17T01:24:37.271Z,234.71
2023-02-17T01:25:37.240Z,233.41
2023-02-17T01:26:37.199Z,234.61
2023-02-17T01:27:37.204Z,232.04
2023-02-17T01:28:37.169Z,232.38
2023-02-17T01:29:37.176Z,231.73
2023-02-17T01:30:37.170Z,235.02
2023-02-17T01:31:37.317Z,231.77
2023-02-17T01:32:37.140Z,233.38
2023-02-17T01:33:37.131Z,234.04
2023-02-17T01:34:37.099Z,233.96
2023-02-17T01:35:37.089Z,233.91
2023-02-17T01:36:37.068Z,234.11
2023-02-17T01:37:37.074Z,234.36
2023-02-17T01:38:37.036Z,236.37
2023-02-17T01:39:37.058Z,233.63
2023-02-17T01:40:37.021Z,232.60
2023-02-17T01:41:37.031Z,234.26
2023-02-17T01:42:36.990Z,235.04
2023-02-17T01:43:36.989Z,234.46
2023-02-17T01:44:36.955Z,233.29
2023-02-17T01:45:36.930Z,232.85
2023-02-17T01:46:36.944Z,233.79
2023-02-17T01:47:36.914Z,232.82
2023-02-17T01:48:36.875Z,233.66
2023-02-17T01:49:36.862Z,232.69
2023-02-17T01:50:36.843Z,234.05
2023-02-17T01:51:36.810Z,233.43
2023-02-17T01:52:36.824Z,233.39
2023-02-17T01:53:36.787Z,231.95
2023-02-17T01:54:36.763Z,232.16
2023-02-17T01:55:36.754Z,231.40
2023-02-17T01:56:36.720Z,232.76
2023-02-17T01:57:36.755Z,232.78
2023-02-17T01:58:36.716Z,230.87
2023-02-17T01:59:36.678Z,233.36
2023-02-17T02:00:36.656Z,231.55
2023-02-17T02:01:36.694Z,235.34
2023-02-17T02:02:36.693Z,230.00
2023-02-17T02:03:36.622Z,232.82
2023-02-17T02:04:36.614Z,232.17
2023-02-17T02:05:37.615Z,234.62
2023-02-17T02:06:36.593Z,230.88
2023-02-17T02:07:36.549Z,234.61
2023-02-17T02:08:36.546Z,228.90
2023-02-17T02:09:36.531Z,233.69
2023-02-17T02:10:36.508Z,235.22
2023-02-17T02:11:36.507Z,232.87
2023-02-17T02:12:36.477Z,233.00
2023-02-17T02:13:36.470Z,232.85
2023-02-17T02:14:36.430Z,233.20
2023-02-17T02:15:36.428Z,233.21
2023-02-17T02:16:36.422Z,230.84
2023-02-17T02:17:36.421Z,230.72
2023-02-17T02:18:36.419Z,233.03
2023-02-17T02:19:36.377Z,229.02
2023-02-17T02:20:36.376Z,234.44
2023-02-17T02:21:36.355Z,233.30
2023-02-17T02:22:36.336Z,229.97
2023-02-17T02:23:36.351Z,234.70
2023-02-17T02:24:36.343Z,231.68
2023-02-17T02:25:36.317Z,234.70
2023-02-17T02:26:36.308Z,232.49
2023-02-17T02:27:36.284Z,235.73
2023-02-17T02:28:36.307Z,232.57
2023-02-17T02:29:36.279Z,234.02
2023-02-17T02:30:36.265Z,230.95
2023-02-17T02:31:36.273Z,231.87
2023-02-17T02:32:36.250Z,231.12
2023-02-17T02:33:36.245Z,233.98
2023-02-17T02:34:36.217Z,230.73
2023-02-17T02:35:36.257Z,233.11
2023-02-17T02:36:36.176Z,231.89
2023-02-17T02:37:36.174Z,231.41
2023-02-17T02:38:36.188Z,231.05
2023-02-17T02:39:36.149Z,235.05
2023-02-17T02:40:36.160Z,227.79
2023-02-17T02:41:36.145Z,214.47
2023-02-17T02:42:36.129Z,193.39
2023-02-17T02:43:36.128Z,190.23
2023-02-17T02:44:36.097Z,180.71
2023-02-17T02:45:36.100Z,175.70
2023-02-17T02:46:36.069Z,170.66
2023-02-17T02:47:36.041Z,161.22
2023-02-17T02:48:36.032Z,156.55
2023-02-17T02:49:36.009Z,153.80
2023-02-17T02:50:36.023Z,146.44
2023-02-17T02:51:35.959Z,135.48
2023-02-17T02:52:35.965Z,126.43
2023-02-17T02:53:35.977Z,116.85
2023-02-17T02:54:35.937Z,107.44
2023-02-17T02:55:35.916Z,101.33
2023-02-17T02:56:35.907Z,94.88
2023-02-17T02:57:35.885Z,87.95
2023-02-17T02:58:35.877Z,86.43
2023-02-17T02:59:35.877Z,76.05
2023-02-17T03:00:35.867Z,72.54
2023-02-17T03:01:35.879Z,64.81
2023-02-17T03:02:35.821Z,59.10
2023-02-17T03:03:35.849Z,53.16
2023-02-17T03:04:35.815Z,46.07
2023-02-17T03:05:35.792Z,29.73
2023-02-17T03:06:35.796Z,26.20
2023-02-17T03:07:35.762Z,23.79
2023-02-17T03:08:35.765Z,26.80
2023-02-17T03:09:35.773Z,25.74
2023-02-17T03:10:35.755Z,32.13
2023-02-17T03:11:35.743Z,24.73
2023-02-17T03:12:35.730Z,22.50
2023-02-17T03:13:35.729Z,27.72
2023-02-17T03:14:35.740Z,28.47
2023-02-17T03:15:35.699Z,29.00
2023-02-17T03:16:35.709Z,27.35
2023-02-17T03:17:35.660Z,25.02
2023-02-17T03:18:35.669Z,30.93
2023-02-17T03:19:35.677Z,30.49
2023-02-17T03:20:35.646Z,25.00
2023-02-17T03:21:35.634Z,29.53
2023-02-17T03:22:35.628Z,25.00
2023-02-17T03:23:35.618Z,25.30
2023-02-17T03:24:35.626Z,25.39
2023-02-17T03:25:35.609Z,21.32
2023-02-17T03:26:35.586Z,18.44
2023-02-17T03:27:35.564Z,20.91
2023-02-17T03:28:35.568Z,31.18
2023-02-17T03:29:35.573Z,27.44
2023-02-17T03:30:35.533Z,29.07
2023-02-17T03:31:35.615Z,29.13
2023-02-17T03:32:35.549Z,33.80
2023-02-17T03:33:35.548Z,34.26
2023-02-17T03:34:35.531Z,34.39
2023-02-17T03:35:35.516Z,30.53
2023-02-17T03:36:35.514Z,26.48
2023-02-17T03:37:35.503Z,34.42
2023-02-17T03:38:35.525Z,34.85
2023-02-17T03:39:35.511Z,37.30
2023-02-17T03:40:35.476Z,34.12
2023-02-17T03:41:35.475Z,31.00
2023-02-17T03:42:35.483Z,31.22
2023-02-17T03:43:35.499Z,30.16
2023-02-17T03:44:35.555Z,27.77
2023-02-17T03:45:35.534Z,26.51
2023-02-17T03:46:35.474Z,26.24
2023-02-17T03:47:35.438Z,27.09
2023-02-17T03:48:35.440Z,23.20
2023-02-17T03:49:35.458Z,27.20
2023-02-17T03:50:35.418Z,25.13
2023-02-17T03:51:35.389Z,27.09
2023-02-17T03:52:35.425Z,28.12
2023-02-17T03:53:35.396Z,27.83
2023-02-17T03:54:35.396Z,27.93
2023-02-17T03:55:35.425Z,28.06
2023-02-17T03:56:35.350Z,28.93
2023-02-17T03:57:35.378Z,31.12
2023-02-17T03:58:35.357Z,34.50
2023-02-17T03:59:35.309Z,39.91
2023-02-17T04:00:35.339Z,40.91
2023-02-17T04:01:35.351Z,40.28
2023-02-17T04:02:35.291Z,41.53
2023-02-17T04:03:35.275Z,40.95
2023-02-17T04:04:35.252Z,40.43
2023-02-17T04:05:35.311Z,42.59
2023-02-17T04:06:35.251Z,44.26
2023-02-17T04:07:35.258Z,45.57
2023-02-17T04:08:35.223Z,44.57
2023-02-17T04:09:35.246Z,45.27
2023-02-17T04:10:35.241Z,45.37
2023-02-17T04:11:35.223Z,45.44
2023-02-17T04:12:35.216Z,45.83
2023-02-17T04:13:35.216Z,46.14
2023-02-17T04:14:35.189Z,47.54
2023-02-17T04:15:35.206Z,48.50
2023-02-17T04:16:35.148Z,46.99
2023-02-17T04:17:35.155Z,47.30
2023-02-17T04:18:35.155Z,46.37
2023-02-17T04:19:35.132Z,42.61
2023-02-17T04:20:35.152Z,40.07
2023-02-17T04:21:35.105Z,40.60
2023-02-17T04:22:35.116Z,37.93
2023-02-17T04:23:35.116Z,37.74
2023-02-17T04:24:35.109Z,29.74
2023-02-17T04:25:35.122Z,30.07
2023-02-17T04:26:35.092Z,27.66
2023-02-17T04:27:35.078Z,25.58
2023-02-17T04:28:35.104Z,27.07
2023-02-17T04:29:35.056Z,27.59
2023-02-17T04:30:35.154Z,27.45
2023-02-17T04:31:35.175Z,25.62
2023-02-17T04:32:35.043Z,30.32
2023-02-17T04:33:35.028Z,26.62
2023-02-17T04:34:35.021Z,25.03
2023-02-17T04:35:35.020Z,21.93
2023-02-17T04:36:35.021Z,30.49
2023-02-17T04:37:34.997Z,26.24
2023-02-17T04:38:34.999Z,25.81
2023-02-17T04:39:35.006Z,25.73
2023-02-17T04:40:35.024Z,25.25
2023-02-17T04:41:35.001Z,27.45
2023-02-17T04:42:34.991Z,25.14
2023-02-17T04:43:34.994Z,28.54
2023-02-17T04:44:34.961Z,27.30
2023-02-17T04:45:34.978Z,26.65
2023-02-17T04:46:34.963Z,27.01
2023-02-17T04:47:34.984Z,25.83
2023-02-17T04:48:34.942Z,26.88
2023-02-17T04:49:34.952Z,26.72
2023-02-17T04:50:34.920Z,28.54
2023-02-17T04:51:34.932Z,33.20
2023-02-17T04:52:34.932Z,30.54
2023-02-17T04:53:34.895Z,34.74
2023-02-17T04:54:34.902Z,34.47
2023-02-17T04:55:34.897Z,34.12
2023-02-17T04:56:34.916Z,33.50
2023-02-17T04:57:34.869Z,27.89
2023-02-17T04:58:34.875Z,25.00
2023-02-17T04:59:34.861Z,28.73
2023-02-17T05:00:34.841Z,28.56
2023-02-17T05:01:34.907Z,28.47
2023-02-17T05:02:34.844Z,30.06
2023-02-17T05:03:34.842Z,28.68
2023-02-17T05:04:34.865Z,34.47
2023-02-17T05:05:34.826Z,34.19
2023-02-17T05:06:34.814Z,34.59
2023-02-17T05:07:34.810Z,34.84
2023-02-17T05:08:34.833Z,35.94
2023-02-17T05:09:34.820Z,35.00
2023-02-17T05:10:34.824Z,37.74
2023-02-17T05:11:34.813Z,35.09
2023-02-17T05:12:34.813Z,32.04
2023-02-17T05:13:34.810Z,38.98
2023-02-17T05:14:34.805Z,38.32
2023-02-17T05:15:35.138Z,43.42
2023-02-17T05:16:34.760Z,39.80
2023-02-17T05:17:34.751Z,40.79
2023-02-17T05:18:34.760Z,46.29
2023-02-17T05:19:34.769Z,46.11
2023-02-17T05:20:34.751Z,47.53
2023-02-17T05:21:34.748Z,54.44
2023-02-17T05:22:34.747Z,48.04
2023-02-17T05:23:34.729Z,47.77
2023-02-17T05:24:34.732Z,56.64
2023-02-17T05:25:34.727Z,54.32
2023-02-17T05:26:34.750Z,59.43
2023-02-17T05:27:34.726Z,64.57
2023-02-17T05:28:34.714Z,65.03
2023-02-17T05:29:34.723Z,68.02
2023-02-17T05:30:34.719Z,70.36
2023-02-17T05:31:34.779Z,75.02
2023-02-17T05:32:34.722Z,79.48
2023-02-17T05:33:34.746Z,79.65
2023-02-17T05:34:34.711Z,80.07
2023-02-17T05:35:35.134Z,81.24
2023-02-17T05:36:34.728Z,82.28
2023-02-17T05:37:34.741Z,83.96
2023-02-17T05:38:34.707Z,81.17
2023-02-17T05:39:34.721Z,83.02
2023-02-17T05:40:34.710Z,83.01
2023-02-17T05:41:34.722Z,83.57
2023-02-17T05:42:34.733Z,83.78
2023-02-17T05:43:34.699Z,77.23
2023-02-17T05:44:34.703Z,81.83
2023-02-17T05:45:34.698Z,80.13
2023-02-17T05:46:34.712Z,82.30
2023-02-17T05:47:34.696Z,83.94
2023-02-17T05:48:34.690Z,82.99
2023-02-17T05:49:34.679Z,82.17
2023-02-17T05:50:34.679Z,85.15
2023-02-17T05:51:34.686Z,80.45
2023-02-17T05:52:34.675Z,80.92
2023-02-17T05:53:34.677Z,82.43
2023-02-17T05:54:34.656Z,82.23
2023-02-17T05:55:34.640Z,80.10
2023-02-17T05:56:34.642Z,84.14
2023-02-17T05:57:34.670Z,83.52
2023-02-17T05:58:34.654Z,85.76
2023-02-17T05:59:34.608Z,85.39
2023-02-17T06:00:34.662Z,82.63
2023-02-17T06:01:37.058Z,88.20
2023-02-17T06:02:34.624Z,88.45
2023-02-17T06:03:34.592Z,89.95
2023-02-17T06:04:34.641Z,91.41
2023-02-17T06:05:34.597Z,91.98
2023-02-17T06:06:34.590Z,92.24
2023-02-17T06:07:34.585Z,92.43
2023-02-17T06:08:34.582Z,93.14
2023-02-17T06:09:34.556Z,90.29
2023-02-17T06:10:34.550Z,90.99
2023-02-17T06:11:34.535Z,89.35
2023-02-17T06:12:34.572Z,86.40
2023-02-17T06:13:34.526Z,86.92
2023-02-17T06:14:34.521Z,86.18
2023-02-17T06:15:34.544Z,87.37
2023-02-17T06:16:34.557Z,87.38
2023-02-17T06:17:34.535Z,87.83
2023-02-17T06:18:34.534Z,88.55
2023-02-17T06:19:34.546Z,89.29
2023-02-17T06:20:34.516Z,89.37
2023-02-17T06:21:34.521Z,89.88
2023-02-17T06:22:34.540Z,92.05
2023-02-17T06:23:34.541Z,97.78
2023-02-17T06:24:34.543Z,102.55
2023-02-17T06:25:34.544Z,106.73
2023-02-17T06:26:34.544Z,112.06
2023-02-17T06:27:34.568Z,113.65
2023-02-17T06:28:35.233Z,117.49
2023-02-17T06:29:34.521Z,119.38
2023-02-17T06:30:34.585Z,122.33
2023-02-17T06:31:34.577Z,124.06
2023-02-17T06:32:34.516Z,125.94
2023-02-17T06:33:34.507Z,126.15
2023-02-17T06:34:34.503Z,125.05
2023-02-17T06:35:34.505Z,124.33
2023-02-17T06:36:34.496Z,123.99
2023-02-17T06:37:34.489Z,122.10
2023-02-17T06:38:34.505Z,118.24
2023-02-17T06:39:34.473Z,116.53
2023-02-17T06:40:34.485Z,114.75
2023-02-17T06:41:34.487Z,114.74
2023-02-17T06:42:34.497Z,119.01
2023-02-17T06:43:34.500Z,119.23
2023-02-17T06:44:34.472Z,122.25
2023-02-17T06:45:34.486Z,122.48
2023-02-17T06:46:34.480Z,123.04
2023-02-17T06:47:34.484Z,124.28
2023-02-17T06:48:34.499Z,126.05
2023-02-17T06:49:34.485Z,130.43
2023-02-17T06:50:34.495Z,131.25
2023-02-17T06:51:34.472Z,128.68
2023-02-17T06:52:34.477Z,133.39
2023-02-17T06:53:34.495Z,132.98
2023-02-17T06:54:34.472Z,135.01
2023-02-17T06:55:35.273Z,137.23
2023-02-17T06:56:34.475Z,136.38
2023-02-17T06:57:34.477Z,135.50
2023-02-17T06:58:34.489Z,134.31
2023-02-17T06:59:34.475Z,134.15
2023-02-17T07:00:34.476Z,131.70
2023-02-17T07:01:34.470Z,133.78
2023-02-17T07:02:34.550Z,132.59
2023-02-17T07:03:34.485Z,130.72
2023-02-17T07:04:34.499Z,127.01
2023-02-17T07:05:34.460Z,124.74
2023-02-17T07:06:34.461Z,122.18
2023-02-17T07:07:34.475Z,120.78
2023-02-17T07:08:34.483Z,118.52
2023-02-17T07:09:34.475Z,117.08
2023-02-17T07:10:34.443Z,117.51
2023-02-17T07:11:34.570Z,117.87
2023-02-17T07:12:34.428Z,125.28
2023-02-17T07:13:34.449Z,128.43
2023-02-17T07:14:34.406Z,132.10
2023-02-17T07:15:34.382Z,132.18
2023-02-17T07:16:34.460Z,132.60
2023-02-17T07:17:34.379Z,131.78
2023-02-17T07:18:34.400Z,128.55
2023-02-17T07:19:34.404Z,124.95
2023-02-17T07:20:34.405Z,121.75
2023-02-17T07:21:34.380Z,121.04
2023-02-17T07:22:34.409Z,119.95
2023-02-17T07:23:34.408Z,121.38
2023-02-17T07:24:34.353Z,120.71
2023-02-17T07:25:34.348Z,122.37
2023-02-17T07:26:34.354Z,126.23
2023-02-17T07:27:34.333Z,127.09
2023-02-17T07:28:34.335Z,127.08
2023-02-17T07:29:34.304Z,129.76
2023-02-17T07:30:34.452Z,127.43
2023-02-17T07:31:34.337Z,128.58
2023-02-17T07:32:34.269Z,131.28
2023-02-17T07:33:34.277Z,131.96
2023-02-17T07:34:34.293Z,132.25
2023-02-17T07:35:34.289Z,134.08
2023-02-17T07:36:34.265Z,135.47
2023-02-17T07:37:34.258Z,136.54
2023-02-17T07:38:34.263Z,137.02
2023-02-17T07:39:34.270Z,137.63
2023-02-17T07:40:34.256Z,136.05
2023-02-17T07:41:34.238Z,136.04
2023-02-17T07:42:34.224Z,136.40
2023-02-17T07:43:34.207Z,136.81
2023-02-17T07:44:34.232Z,137.93
2023-02-17T07:45:34.214Z,137.58
2023-02-17T07:46:34.186Z,136.58
2023-02-17T07:47:34.191Z,136.37
2023-02-17T07:48:34.211Z,138.22
2023-02-17T07:49:34.212Z,138.29
2023-02-17T07:50:34.187Z,138.01
2023-02-17T07:51:34.173Z,137.46
2023-02-17T07:52:34.188Z,136.52
2023-02-17T07:53:34.188Z,135.84
2023-02-17T07:54:34.189Z,131.88
2023-02-17T07:55:34.164Z,129.97
2023-02-17T07:56:34.196Z,127.60
2023-02-17T07:57:34.154Z,125.48
2023-02-17T07:58:34.223Z,124.30
2023-02-17T07:59:34.178Z,123.94
2023-02-17T08:00:34.177Z,122.86
2023-02-17T08:01:34.166Z,121.87
2023-02-17T08:02:34.178Z,122.40
2023-02-17T08:03:34.208Z,122.58
2023-02-17T08:04:34.277Z,123.63
2023-02-17T08:05:34.170Z,121.96
2023-02-17T08:06:34.174Z,121.98
2023-02-17T08:07:34.172Z,119.90
2023-02-17T08:08:34.178Z,118.82
2023-02-17T08:09:34.192Z,118.51
2023-02-17T08:10:34.146Z,118.49
2023-02-17T08:11:34.195Z,118.64
2023-02-17T08:12:34.168Z,120.36
2023-02-17T08:13:34.166Z,119.47
2023-02-17T08:14:34.178Z,119.25
2023-02-17T08:15:34.160Z,118.43
2023-02-17T08:16:34.184Z,120.27
2023-02-17T08:17:34.189Z,120.30
2023-02-17T08:18:36.451Z,119.03
2023-02-17T08:19:47.389Z,118.17
2023-02-17T08:20:35.617Z,118.24
2023-02-17T08:21:34.367Z,118.29
2023-02-17T08:22:34.371Z,117.98
2023-02-17T08:23:34.366Z,115.84
2023-02-17T08:24:34.384Z,113.12
2023-02-17T08:25:34.348Z,115.12
2023-02-17T08:26:34.357Z,116.98
2023-02-17T08:27:34.343Z,118.72
2023-02-17T08:28:34.346Z,121.87
2023-02-17T08:29:34.348Z,123.40
2023-02-17T08:30:34.429Z,126.45
2023-02-17T08:31:34.430Z,128.09
2023-02-17T08:32:34.326Z,131.60
2023-02-17T08:33:34.333Z,131.72
2023-02-17T08:34:34.324Z,132.43
2023-02-17T08:35:34.353Z,134.07
2023-02-17T08:36:34.344Z,134.45
2023-02-17T08:37:34.321Z,135.62
2023-02-17T08:38:34.330Z,134.66
2023-02-17T08:39:34.317Z,137.23
2023-02-17T08:40:34.357Z,136.79
2023-02-17T08:41:34.305Z,139.40
2023-02-17T08:42:34.298Z,141.35
2023-02-17T08:43:34.318Z,142.78
2023-02-17T08:44:34.324Z,143.61
2023-02-17T08:45:34.377Z,146.24
2023-02-17T08:46:34.325Z,146.32
2023-02-17T08:47:34.298Z,147.22
2023-02-17T08:48:35.896Z,149.64
2023-02-17T08:49:34.284Z,148.35
2023-02-17T08:50:34.304Z,152.29
2023-02-17T08:51:34.293Z,151.20
2023-02-17T08:52:34.285Z,153.33
2023-02-17T08:53:34.279Z,154.93
2023-02-17T08:54:34.237Z,153.70
2023-02-17T08:55:48.308Z,156.83
2023-02-17T08:56:35.305Z,156.95
2023-02-17T08:57:34.261Z,157.19
2023-02-17T08:58:34.238Z,157.81
2023-02-17T08:59:34.254Z,160.28
2023-02-17T09:00:34.233Z,161.81
2023-02-17T09:01:34.280Z,162.42
2023-02-17T09:02:34.219Z,164.03
2023-02-17T09:03:34.201Z,165.91
2023-02-17T09:04:34.211Z,166.68
2023-02-17T09:05:34.183Z,168.55
2023-02-17T09:06:34.178Z,168.04
2023-02-17T09:07:34.152Z,169.81
2023-02-17T09:08:34.190Z,170.85
2023-02-17T09:09:34.163Z,170.25
2023-02-17T09:10:34.196Z,172.34
2023-02-17T09:11:34.184Z,173.43
2023-02-17T09:12:34.139Z,173.92
2023-02-17T09:13:34.164Z,176.16
2023-02-17T09:14:34.162Z,175.40
2023-02-17T09:15:34.234Z,175.40
2023-02-17T09:16:34.118Z,178.41
2023-02-17T09:17:34.134Z,180.31
2023-02-17T09:18:34.098Z,181.64
2023-02-17T09:19:34.115Z,183.01
2023-02-17T09:20:34.121Z,182.57
2023-02-17T09:21:34.127Z,183.74
2023-02-17T09:22:34.091Z,184.77
2023-02-17T09:23:34.137Z,184.06
2023-02-17T09:24:34.119Z,186.19
2023-02-17T09:25:34.059Z,185.29
2023-02-17T09:26:34.070Z,186.80
2023-02-17T09:27:34.030Z,189.03
2023-02-17T09:28:34.120Z,182.61
2023-02-17T09:29:34.003Z,187.66
2023-02-17T09:30:34.102Z,189.99
2023-02-17T09:31:34.267Z,189.62
2023-02-17T09:32:34.059Z,190.25
2023-02-17T09:33:33.993Z,186.53
2023-02-17T09:34:33.947Z,191.92
2023-02-17T09:35:33.924Z,190.94
2023-02-17T09:36:33.928Z,193.42
2023-02-17T09:37:33.937Z,187.93
2023-02-17T09:38:33.939Z,191.49
2023-02-17T09:39:33.892Z,191.86
2023-02-17T09:40:33.861Z,194.10
2023-02-17T09:41:33.897Z,191.33
2023-02-17T09:42:33.885Z,194.90
2023-02-17T09:43:33.826Z,199.87
2023-02-17T09:44:33.878Z,196.11
2023-02-17T09:45:33.844Z,196.49
2023-02-17T09:46:33.887Z,200.41
2023-02-17T09:47:33.816Z,194.93
2023-02-17T09:48:33.781Z,196.18
2023-02-17T09:49:33.760Z,195.83
2023-02-17T09:50:33.806Z,198.17
2023-02-17T09:51:33.801Z,195.50
2023-02-17T09:52:33.734Z,197.41
2023-02-17T09:53:33.732Z,202.05
2023-02-17T09:54:33.704Z,196.94
2023-02-17T09:55:33.688Z,197.23
2023-02-17T09:56:33.795Z,197.93
2023-02-17T09:57:33.679Z,200.85
2023-02-17T09:58:33.742Z,201.79
2023-02-17T09:59:33.633Z,201.20
2023-02-17T10:00:33.632Z,203.68
2023-02-17T10:01:33.644Z,202.67
2023-02-17T10:02:33.679Z,201.04
2023-02-17T10:03:33.648Z,201.75
2023-02-17T10:04:33.691Z,205.75
2023-02-17T10:05:33.610Z,206.19
2023-02-17T10:06:33.560Z,207.41
2023-02-17T10:07:33.518Z,207.71
2023-02-17T10:08:33.517Z,208.52
2023-02-17T10:09:33.545Z,208.30
2023-02-17T10:10:33.472Z,211.08
2023-02-17T10:11:33.556Z,209.18
2023-02-17T10:12:33.398Z,211.41
2023-02-17T10:13:33.496Z,209.98
2023-02-17T10:14:33.422Z,211.38
2023-02-17T10:15:33.393Z,210.90
2023-02-17T10:16:33.365Z,212.81
2023-02-17T10:17:33.316Z,212.35
2023-02-17T10:18:33.319Z,213.05
2023-02-17T10:19:33.318Z,213.86
2023-02-17T10:20:33.323Z,214.02
2023-02-17T10:21:33.303Z,214.33
2023-02-17T10:22:33.268Z,214.85
2023-02-17T10:23:33.210Z,215.71
2023-02-17T10:24:33.185Z,216.82
2023-02-17T10:25:33.200Z,214.19
2023-02-17T10:26:33.170Z,214.82
2023-02-17T10:27:33.141Z,218.58
2023-02-17T10:28:33.195Z,219.16
2023-02-17T10:29:33.110Z,219.65
2023-02-17T10:30:33.217Z,219.96
2023-02-17T10:31:33.161Z,220.09
2023-02-17T10:32:33.251Z,219.87
2023-02-17T10:33:33.102Z,220.01
2023-02-17T10:34:33.099Z,221.68
2023-02-17T10:35:33.065Z,219.65
2023-02-17T10:36:33.073Z,221.60
2023-02-17T10:37:32.999Z,221.43
2023-02-17T10:38:32.942Z,223.66
2023-02-17T10:39:32.951Z,222.98
2023-02-17T10:40:32.910Z,224.24
2023-02-17T10:41:32.992Z,222.77
2023-02-17T10:42:32.873Z,221.83
2023-02-17T10:43:32.859Z,226.25
2023-02-17T10:44:32.823Z,225.02
2023-02-17T10:45:32.829Z,226.43
2023-02-17T10:46:32.852Z,226.06
2023-02-17T10:47:32.796Z,226.76
2023-02-17T10:48:32.754Z,230.66
2023-02-17T10:49:32.707Z,230.11
2023-02-17T10:50:32.729Z,232.30
2023-02-17T10:51:32.674Z,231.61
2023-02-17T10:52:32.691Z,230.25
2023-02-17T10:53:32.634Z,229.36
2023-02-17T10:54:32.599Z,229.71
2023-02-17T10:55:32.601Z,232.58
2023-02-17T10:56:32.570Z,231.05
2023-02-17T10:57:32.582Z,230.55
2023-02-17T10:58:32.525Z,233.35
2023-02-17T10:59:32.539Z,231.65
2023-02-17T11:00:32.514Z,233.15
2023-02-17T11:01:32.511Z,233.69
2023-02-17T11:02:32.473Z,235.85
2023-02-17T11:03:32.452Z,234.76
2023-02-17T11:04:32.405Z,234.73
2023-02-17T11:05:32.386Z,233.19
2023-02-17T11:06:32.349Z,235.56
2023-02-17T11:07:32.380Z,235.88
2023-02-17T11:08:32.315Z,236.06
2023-02-17T11:09:32.301Z,236.11
2023-02-17T11:10:32.254Z,236.65
2023-02-17T11:11:32.239Z,236.70
2023-02-17T11:12:32.262Z,236.15
2023-02-17T11:13:32.221Z,235.90
2023-02-17T11:14:32.203Z,237.60
2023-02-17T11:15:32.144Z,237.57
2023-02-17T11:16:32.161Z,236.31
2023-02-17T11:17:32.104Z,237.51
2023-02-17T11:18:32.063Z,238.76
2023-02-17T11:19:32.072Z,237.17
2023-02-17T11:20:32.034Z,237.20
2023-02-17T11:21:32.009Z,237.18
2023-02-17T11:22:32.066Z,236.94
2023-02-17T11:23:31.973Z,239.43
2023-02-17T11:24:31.974Z,239.38
2023-02-17T11:25:31.933Z,238.84
2023-02-17T11:26:31.917Z,239.28
2023-02-17T11:27:31.925Z,239.61
2023-02-17T11:28:31.892Z,241.17
2023-02-17T11:29:31.884Z,240.03
2023-02-17T11:30:31.905Z,239.62
2023-02-17T11:31:31.960Z,241.56
2023-02-17T11:32:31.805Z,240.36
2023-02-17T11:33:31.805Z,240.92
2023-02-17T11:34:31.772Z,240.13
2023-02-17T11:35:31.735Z,243.30
2023-02-17T11:36:31.732Z,241.49
2023-02-17T11:37:31.697Z,242.68
2023-02-17T11:38:31.709Z,242.05
2023-02-17T11:39:31.670Z,245.40
2023-02-17T11:40:31.646Z,244.72
2023-02-17T11:41:31.610Z,244.82
2023-02-17T11:42:31.612Z,246.27
2023-02-17T11:43:31.586Z,248.42
2023-02-17T11:44:31.574Z,248.53
2023-02-17T11:45:31.563Z,248.03
2023-02-17T11:46:31.493Z,248.52
2023-02-17T11:47:31.468Z,248.40
2023-02-17T11:48:31.498Z,248.50
2023-02-17T11:49:31.459Z,249.60
2023-02-17T11:50:41.260Z,248.88
2023-02-17T11:51:32.376Z,249.06
2023-02-17T11:52:31.395Z,249.38
2023-02-17T11:53:31.349Z,248.97
2023-02-17T11:54:31.297Z,249.64
2023-02-17T11:55:31.291Z,250.22
2023-02-17T11:56:31.260Z,248.13
2023-02-17T11:57:31.252Z,246.39
2023-02-17T11:58:31.257Z,247.78
2023-02-17T11:59:31.210Z,248.44
2023-02-17T12:00:31.162Z,247.71
2023-02-17T12:01:31.131Z,248.55
2023-02-17T12:02:31.119Z,248.64
2023-02-17T12:03:31.141Z,248.98
2023-02-17T12:04:31.074Z,249.56
2023-02-17T12:05:31.028Z,250.57
2023-02-17T12:06:31.013Z,250.98
2023-02-17T12:07:30.994Z,248.59
2023-02-17T12:08:30.985Z,250.00
2023-02-17T12:09:30.937Z,248.08
2023-02-17T12:10:30.913Z,245.56
2023-02-17T12:11:30.880Z,246.17
2023-02-17T12:12:30.869Z,245.64
2023-02-17T12:13:30.878Z,245.54
2023-02-17T12:14:31.461Z,246.74
2023-02-17T12:15:30.769Z,246.19
2023-02-17T12:16:30.782Z,245.08
2023-02-17T12:17:30.718Z,246.21
2023-02-17T12:18:30.684Z,244.63
2023-02-17T12:19:30.978Z,245.51
2023-02-17T12:20:30.610Z,248.18
2023-02-17T12:21:30.603Z,247.66
2023-02-17T12:22:30.574Z,247.97
2023-02-17T12:23:30.537Z,248.28
2023-02-17T12:24:30.543Z,247.09
2023-02-17T12:25:30.496Z,247.91
2023-02-17T12:26:30.465Z,246.26
2023-02-17T12:27:30.420Z,246.94
2023-02-17T12:28:30.423Z,244.50
2023-02-17T12:29:30.430Z,250.00
2023-02-17T12:30:30.450Z,249.65
2023-02-17T12:31:30.387Z,247.48
2023-02-17T12:32:30.305Z,248.45
2023-02-17T12:33:30.269Z,248.19
2023-02-17T12:34:30.239Z,248.13
2023-02-17T12:35:30.204Z,248.51
2023-02-17T12:36:30.169Z,248.08
2023-02-17T12:37:30.137Z,247.26
2023-02-17T12:38:30.121Z,250.00
2023-02-17T12:39:30.089Z,249.79
2023-02-17T12:40:30.025Z,248.20
2023-02-17T12:41:30.044Z,249.31
2023-02-17T12:42:29.972Z,248.28
2023-02-17T12:43:29.941Z,246.64
2023-02-17T12:44:29.920Z,248.76
2023-02-17T12:45:29.883Z,249.78
2023-02-17T12:46:29.855Z,250.00
2023-02-17T12:47:29.817Z,246.11
2023-02-17T12:48:29.775Z,249.48
2023-02-17T12:49:29.776Z,246.14
2023-02-17T12:50:29.697Z,246.31
2023-02-17T12:51:29.778Z,247.42
2023-02-17T12:52:29.657Z,246.74
2023-02-17T12:53:29.614Z,247.98
2023-02-17T12:54:29.613Z,246.32
2023-02-17T12:55:29.542Z,248.98
2023-02-17T12:56:29.517Z,245.68
2023-02-17T12:57:29.494Z,246.68
2023-02-17T12:58:29.437Z,245.29
2023-02-17T12:59:29.477Z,248.15
2023-02-17T13:00:29.385Z,247.37
2023-02-17T13:01:29.362Z,248.61
2023-02-17T13:02:29.355Z,248.07